Monroe, Georgia
Current Conditions -  °F | °C
As of 11:15 PM on Sunday 25 Jan 2015 (Local Time) from KWDR Reporting Station
Overcast Overcast  
Wind Chill: 50°   Ceiling: 5000
Heat Index: 50°   Visibility: 10mi
Dew Point: 37°   Wind: 0mph
Humidity: 62%   Direction: NA
Pressure: 29.78"   Gusts: NA
Location:  33.8°N, 83.71°W
Report Text: KWDR 260415Z AUTO 00000KT 10SM BKN050 OVC070 10/03 A2978 RMK AO1
Loading
Personal Weather Stations






























Interactive Weather Map New forecast layout! Learn more

10-Day Weather Forecast

Advertisements
Track Severe Weather on mobile